Terminal Aerodrome Forecast
Issued by NWS Charleston, WV

Current Version | Previous Version | Graphics & Text | Print | Product List | Glossary On
Versions: 1 2 3 4 5 6 7 8 9 10 11 12 13 14 15 16 17 18 19 20 21 22
112
FTUS41 KRLX 110900 AAA
TAFPKB
TAF AMD
KPKB 110900Z 1109/1206 27009G16KT P6SM OVC060
     FM111000 26007KT P6SM BKN035
     FM111200 27006KT P6SM BKN030
     FM111800 29008KT P6SM SCT035
     FM120400 00000KT P6SM BKN250=

USA.gov is the U.S. government's official web portal to all federal, state and local government web resources and services.